sensor_id;sensor_type;location;lat;lon;timestamp;P1;durP1;ratioP1;P2;durP2;ratioP2
77204;SDS011;67992;46.618;18.850;2023-04-07T00:00:28;0.50;;;0.50;;
77204;SDS011;67992;46.618;18.850;2023-04-07T00:02:53;0.90;;;0.90;;
77204;SDS011;67992;46.618;18.850;2023-04-07T00:05:19;0.73;;;0.73;;
77204;SDS011;67992;46.618;18.850;2023-04-07T00:07:48;0.70;;;0.70;;
77204;SDS011;67992;46.618;18.850;2023-04-07T00:10:16;0.80;;;0.80;;
77204;SDS011;67992;46.618;18.850;2023-04-07T00:12:45;0.70;;;0.70;;
77204;SDS011;67992;46.618;18.850;2023-04-07T00:15:13;0.65;;;0.65;;
77204;SDS011;67992;46.618;18.850;2023-04-07T00:17:38;0.50;;;0.50;;
77204;SDS011;67992;46.618;18.850;2023-04-07T00:20:04;0.80;;;0.80;;
77204;SDS011;67992;46.618;18.850;2023-04-07T00:22:31;0.70;;;0.70;;
77204;SDS011;67992;46.618;18.850;2023-04-07T00:24:56;0.65;;;0.65;;
77204;SDS011;67992;46.618;18.850;2023-04-07T00:27:25;0.73;;;0.73;;
77204;SDS011;67992;46.618;18.850;2023-04-07T00:29:50;0.80;;;0.80;;
77204;SDS011;67992;46.618;18.850;2023-04-07T00:32:21;0.68;;;0.68;;
77204;SDS011;67992;46.618;18.850;2023-04-07T00:34:47;0.77;;;0.77;;
77204;SDS011;67992;46.618;18.850;2023-04-07T00:37:15;0.80;;;0.80;;
77204;SDS011;67992;46.618;18.850;2023-04-07T00:39:44;0.93;;;0.93;;
77204;SDS011;67992;46.618;18.850;2023-04-07T00:42:10;0.80;;;0.80;;
77204;SDS011;67992;46.618;18.850;2023-04-07T00:44:36;0.80;;;0.80;;
77204;SDS011;67992;46.618;18.850;2023-04-07T00:47:02;0.80;;;0.80;;
77204;SDS011;67992;46.618;18.850;2023-04-07T00:49:28;0.80;;;0.80;;
77204;SDS011;67992;46.618;18.850;2023-04-07T00:51:56;0.70;;;0.70;;
77204;SDS011;67992;46.618;18.850;2023-04-07T00:54:23;0.70;;;0.70;;
77204;SDS011;67992;46.618;18.850;2023-04-07T00:56:52;0.80;;;0.80;;
77204;SDS011;67992;46.618;18.850;2023-04-07T00:59:17;0.80;;;0.80;;
77204;SDS011;67992;46.618;18.850;2023-04-07T01:01:47;0.85;;;0.85;;
77204;SDS011;67992;46.618;18.850;2023-04-07T01:07:05;0.70;;;0.70;;
77204;SDS011;67992;46.618;18.850;2023-04-07T01:09:42;0.65;;;0.65;;
77204;SDS011;67992;46.618;18.850;2023-04-07T01:12:38;0.45;;;0.45;;
77204;SDS011;67992;46.618;18.850;2023-04-07T01:15:08;0.63;;;0.63;;
77204;SDS011;67992;46.618;18.850;2023-04-07T01:17:41;1.00;;;0.90;;
77204;SDS011;67992;46.618;18.850;2023-04-07T01:20:13;0.88;;;0.88;;
77204;SDS011;67992;46.618;18.850;2023-04-07T01:22:45;0.70;;;0.70;;
77204;SDS011;67992;46.618;18.850;2023-04-07T01:25:21;0.70;;;0.70;;
77204;SDS011;67992;46.618;18.850;2023-04-07T01:30:37;0.50;;;0.50;;
77204;SDS011;67992;46.618;18.850;2023-04-07T01:33:05;0.32;;;0.32;;
77204;SDS011;67992;46.618;18.850;2023-04-07T01:35:33;0.73;;;0.73;;
77204;SDS011;67992;46.618;18.850;2023-04-07T01:38:01;0.80;;;0.80;;
77204;SDS011;67992;46.618;18.850;2023-04-07T01:40:28;0.70;;;0.70;;
77204;SDS011;67992;46.618;18.850;2023-04-07T01:42:55;0.70;;;0.70;;
77204;SDS011;67992;46.618;18.850;2023-04-07T01:45:22;0.85;;;0.85;;
77204;SDS011;67992;46.618;18.850;2023-04-07T01:47:48;0.70;;;0.70;;
77204;SDS011;67992;46.618;18.850;2023-04-07T01:50:15;0.70;;;0.70;;
77204;SDS011;67992;46.618;18.850;2023-04-07T01:52:44;0.80;;;0.80;;
77204;SDS011;67992;46.618;18.850;2023-04-07T01:55:11;0.80;;;0.80;;
77204;SDS011;67992;46.618;18.850;2023-04-07T01:57:39;0.70;;;0.70;;
77204;SDS011;67992;46.618;18.850;2023-04-07T02:00:05;0.40;;;0.40;;
77204;SDS011;67992;46.618;18.850;2023-04-07T02:02:35;0.63;;;0.63;;
77204;SDS011;67992;46.618;18.850;2023-04-07T02:05:06;0.70;;;0.70;;
77204;SDS011;67992;46.618;18.850;2023-04-07T02:10:36;0.80;;;0.80;;
77204;SDS011;67992;46.618;18.850;2023-04-07T02:13:04;0.57;;;0.57;;
77204;SDS011;67992;46.618;18.850;2023-04-07T02:15:31;0.47;;;0.47;;
77204;SDS011;67992;46.618;18.850;2023-04-07T02:18:01;0.60;;;0.60;;
77204;SDS011;67992;46.618;18.850;2023-04-07T02:20:32;0.70;;;0.70;;
77204;SDS011;67992;46.618;18.850;2023-04-07T02:23:00;0.70;;;0.70;;
77204;SDS011;67992;46.618;18.850;2023-04-07T02:25:32;0.77;;;0.77;;
77204;SDS011;67992;46.618;18.850;2023-04-07T02:27:58;0.68;;;0.68;;
77204;SDS011;67992;46.618;18.850;2023-04-07T02:30:25;0.60;;;0.60;;
77204;SDS011;67992;46.618;18.850;2023-04-07T02:32:52;0.77;;;0.77;;
77204;SDS011;67992;46.618;18.850;2023-04-07T02:35:18;0.45;;;0.45;;
77204;SDS011;67992;46.618;18.850;2023-04-07T02:37:46;0.80;;;0.80;;
77204;SDS011;67992;46.618;18.850;2023-04-07T02:40:12;0.40;;;0.40;;
77204;SDS011;67992;46.618;18.850;2023-04-07T02:42:38;0.77;;;0.77;;
77204;SDS011;67992;46.618;18.850;2023-04-07T02:45:04;0.60;;;0.60;;
77204;SDS011;67992;46.618;18.850;2023-04-07T02:47:32;0.60;;;0.60;;
77204;SDS011;67992;46.618;18.850;2023-04-07T02:49:57;0.60;;;0.60;;
77204;SDS011;67992;46.618;18.850;2023-04-07T02:52:26;0.68;;;0.68;;
77204;SDS011;67992;46.618;18.850;2023-04-07T02:54:52;0.40;;;0.40;;
77204;SDS011;67992;46.618;18.850;2023-04-07T02:57:20;0.60;;;0.60;;
77204;SDS011;67992;46.618;18.850;2023-04-07T02:59:46;0.80;;;0.80;;
77204;SDS011;67992;46.618;18.850;2023-04-07T03:02:11;0.68;;;0.68;;
77204;SDS011;67992;46.618;18.850;2023-04-07T03:04:37;0.65;;;0.65;;
77204;SDS011;67992;46.618;18.850;2023-04-07T03:07:02;0.60;;;0.60;;
77204;SDS011;67992;46.618;18.850;2023-04-07T03:09:28;0.68;;;0.68;;
77204;SDS011;67992;46.618;18.850;2023-04-07T03:11:56;0.50;;;0.50;;
77204;SDS011;67992;46.618;18.850;2023-04-07T03:14:22;0.43;;;0.43;;
77204;SDS011;67992;46.618;18.850;2023-04-07T03:16:48;0.70;;;0.70;;
77204;SDS011;67992;46.618;18.850;2023-04-07T03:19:16;0.45;;;0.45;;
77204;SDS011;67992;46.618;18.850;2023-04-07T03:21:41;0.60;;;0.60;;
77204;SDS011;67992;46.618;18.850;2023-04-07T03:24:07;0.70;;;0.70;;
77204;SDS011;67992;46.618;18.850;2023-04-07T03:26:33;0.63;;;0.63;;
77204;SDS011;67992;46.618;18.850;2023-04-07T03:28:58;0.60;;;0.60;;
77204;SDS011;67992;46.618;18.850;2023-04-07T03:31:24;0.80;;;0.80;;
77204;SDS011;67992;46.618;18.850;2023-04-07T03:33:50;0.60;;;0.60;;
77204;SDS011;67992;46.618;18.850;2023-04-07T03:36:16;0.60;;;0.60;;
77204;SDS011;67992;46.618;18.850;2023-04-07T03:38:42;0.55;;;0.55;;
77204;SDS011;67992;46.618;18.850;2023-04-07T03:41:08;0.60;;;0.60;;
77204;SDS011;67992;46.618;18.850;2023-04-07T03:43:34;0.40;;;0.40;;
77204;SDS011;67992;46.618;18.850;2023-04-07T03:46:00;0.60;;;0.60;;
77204;SDS011;67992;46.618;18.850;2023-04-07T03:48:25;0.70;;;0.70;;
77204;SDS011;67992;46.618;18.850;2023-04-07T03:50:51;0.52;;;0.52;;
77204;SDS011;67992;46.618;18.850;2023-04-07T03:53:16;0.57;;;0.57;;
77204;SDS011;67992;46.618;18.850;2023-04-07T03:55:43;0.88;;;0.88;;
77204;SDS011;67992;46.618;18.850;2023-04-07T03:58:09;0.50;;;0.50;;
77204;SDS011;67992;46.618;18.850;2023-04-07T04:00:35;0.73;;;0.73;;
77204;SDS011;67992;46.618;18.850;2023-04-07T04:03:01;0.60;;;0.60;;
77204;SDS011;67992;46.618;18.850;2023-04-07T04:05:27;0.50;;;0.50;;
77204;SDS011;67992;46.618;18.850;2023-04-07T04:07:52;0.73;;;0.73;;
77204;SDS011;67992;46.618;18.850;2023-04-07T04:10:18;0.90;;;0.90;;
77204;SDS011;67992;46.618;18.850;2023-04-07T04:12:45;0.75;;;0.75;;
77204;SDS011;67992;46.618;18.850;2023-04-07T04:15:11;0.60;;;0.60;;
77204;SDS011;67992;46.618;18.850;2023-04-07T04:17:37;0.68;;;0.68;;
77204;SDS011;67992;46.618;18.850;2023-04-07T04:20:03;0.57;;;0.57;;
77204;SDS011;67992;46.618;18.850;2023-04-07T04:22:29;0.70;;;0.70;;
77204;SDS011;67992;46.618;18.850;2023-04-07T04:24:54;0.52;;;0.52;;
77204;SDS011;67992;46.618;18.850;2023-04-07T04:27:20;0.68;;;0.68;;
77204;SDS011;67992;46.618;18.850;2023-04-07T04:29:45;0.40;;;0.40;;
77204;SDS011;67992;46.618;18.850;2023-04-07T04:32:11;0.52;;;0.52;;
77204;SDS011;67992;46.618;18.850;2023-04-07T04:34:38;0.65;;;0.65;;
77204;SDS011;67992;46.618;18.850;2023-04-07T04:37:06;0.80;;;0.80;;
77204;SDS011;67992;46.618;18.850;2023-04-07T04:39:31;0.80;;;0.80;;
77204;SDS011;67992;46.618;18.850;2023-04-07T04:41:57;0.80;;;0.80;;
77204;SDS011;67992;46.618;18.850;2023-04-07T04:44:22;0.70;;;0.70;;
77204;SDS011;67992;46.618;18.850;2023-04-07T04:46:48;0.60;;;0.60;;
77204;SDS011;67992;46.618;18.850;2023-04-07T04:49:14;0.55;;;0.55;;
77204;SDS011;67992;46.618;18.850;2023-04-07T04:51:40;0.63;;;0.60;;
77204;SDS011;67992;46.618;18.850;2023-04-07T04:54:06;0.50;;;0.50;;
77204;SDS011;67992;46.618;18.850;2023-04-07T04:56:32;0.70;;;0.70;;
77204;SDS011;67992;46.618;18.850;2023-04-07T04:58:58;0.60;;;0.60;;
77204;SDS011;67992;46.618;18.850;2023-04-07T05:01:23;0.70;;;0.70;;
77204;SDS011;67992;46.618;18.850;2023-04-07T05:03:49;0.47;;;0.47;;
77204;SDS011;67992;46.618;18.850;2023-04-07T05:06:14;0.70;;;0.70;;
77204;SDS011;67992;46.618;18.850;2023-04-07T05:08:40;0.63;;;0.63;;
77204;SDS011;67992;46.618;18.850;2023-04-07T05:11:06;0.50;;;0.50;;
77204;SDS011;67992;46.618;18.850;2023-04-07T05:13:31;0.50;;;0.50;;
77204;SDS011;67992;46.618;18.850;2023-04-07T05:15:57;0.60;;;0.60;;
77204;SDS011;67992;46.618;18.850;2023-04-07T05:18:23;0.70;;;0.70;;
77204;SDS011;67992;46.618;18.850;2023-04-07T05:20:48;0.60;;;0.60;;
77204;SDS011;67992;46.618;18.850;2023-04-07T05:23:14;0.50;;;0.50;;
77204;SDS011;67992;46.618;18.850;2023-04-07T05:25:40;0.57;;;0.57;;
77204;SDS011;67992;46.618;18.850;2023-04-07T05:28:09;0.77;;;0.77;;
77204;SDS011;67992;46.618;18.850;2023-04-07T05:30:34;0.47;;;0.47;;
77204;SDS011;67992;46.618;18.850;2023-04-07T05:33:00;0.63;;;0.63;;
77204;SDS011;67992;46.618;18.850;2023-04-07T05:35:26;0.45;;;0.45;;
77204;SDS011;67992;46.618;18.850;2023-04-07T05:37:51;0.50;;;0.50;;
77204;SDS011;67992;46.618;18.850;2023-04-07T05:40:17;0.57;;;0.57;;
77204;SDS011;67992;46.618;18.850;2023-04-07T05:42:43;0.73;;;0.73;;
77204;SDS011;67992;46.618;18.850;2023-04-07T05:45:09;0.70;;;0.70;;
77204;SDS011;67992;46.618;18.850;2023-04-07T05:47:34;0.32;;;0.32;;
77204;SDS011;67992;46.618;18.850;2023-04-07T05:50:00;0.80;;;0.80;;
77204;SDS011;67992;46.618;18.850;2023-04-07T05:52:25;0.65;;;0.65;;
77204;SDS011;67992;46.618;18.850;2023-04-07T05:54:54;0.55;;;0.55;;
77204;SDS011;67992;46.618;18.850;2023-04-07T05:57:22;0.70;;;0.70;;
77204;SDS011;67992;46.618;18.850;2023-04-07T05:59:48;0.80;;;0.80;;
77204;SDS011;67992;46.618;18.850;2023-04-07T06:02:13;0.50;;;0.50;;
77204;SDS011;67992;46.618;18.850;2023-04-07T06:04:39;0.73;;;0.73;;
77204;SDS011;67992;46.618;18.850;2023-04-07T06:07:05;0.70;;;0.70;;
77204;SDS011;67992;46.618;18.850;2023-04-07T06:09:31;0.60;;;0.60;;
77204;SDS011;67992;46.618;18.850;2023-04-07T06:11:56;0.60;;;0.60;;
77204;SDS011;67992;46.618;18.850;2023-04-07T06:14:23;0.55;;;0.55;;
77204;SDS011;67992;46.618;18.850;2023-04-07T06:16:51;0.45;;;0.45;;
77204;SDS011;67992;46.618;18.850;2023-04-07T06:19:16;0.68;;;0.68;;
77204;SDS011;67992;46.618;18.850;2023-04-07T06:21:42;0.63;;;0.63;;
77204;SDS011;67992;46.618;18.850;2023-04-07T06:24:07;0.70;;;0.70;;
77204;SDS011;67992;46.618;18.850;2023-04-07T06:26:33;0.50;;;0.50;;
77204;SDS011;67992;46.618;18.850;2023-04-07T06:28:59;0.70;;;0.70;;
77204;SDS011;67992;46.618;18.850;2023-04-07T06:31:25;0.52;;;0.52;;
77204;SDS011;67992;46.618;18.850;2023-04-07T06:33:51;0.63;;;0.63;;
77204;SDS011;67992;46.618;18.850;2023-04-07T06:36:17;0.55;;;0.55;;
77204;SDS011;67992;46.618;18.850;2023-04-07T06:38:43;0.50;;;0.50;;
77204;SDS011;67992;46.618;18.850;2023-04-07T06:41:08;0.38;;;0.38;;
77204;SDS011;67992;46.618;18.850;2023-04-07T06:43:40;0.68;;;0.68;;
77204;SDS011;67992;46.618;18.850;2023-04-07T06:46:08;0.52;;;0.52;;
77204;SDS011;67992;46.618;18.850;2023-04-07T06:48:34;0.57;;;0.57;;
77204;SDS011;67992;46.618;18.850;2023-04-07T06:51:00;0.38;;;0.38;;
77204;SDS011;67992;46.618;18.850;2023-04-07T06:53:25;0.43;;;0.43;;
77204;SDS011;67992;46.618;18.850;2023-04-07T06:55:51;0.40;;;0.40;;
77204;SDS011;67992;46.618;18.850;2023-04-07T06:58:27;0.40;;;0.40;;
77204;SDS011;67992;46.618;18.850;2023-04-07T07:00:53;0.60;;;0.60;;
77204;SDS011;67992;46.618;18.850;2023-04-07T07:03:18;0.60;;;0.60;;
77204;SDS011;67992;46.618;18.850;2023-04-07T07:05:45;0.60;;;0.60;;
77204;SDS011;67992;46.618;18.850;2023-04-07T07:08:10;0.60;;;0.60;;
77204;SDS011;67992;46.618;18.850;2023-04-07T07:10:41;0.50;;;0.50;;
77204;SDS011;67992;46.618;18.850;2023-04-07T07:13:07;0.60;;;0.60;;
77204;SDS011;67992;46.618;18.850;2023-04-07T07:15:36;0.98;;;0.93;;
77204;SDS011;67992;46.618;18.850;2023-04-07T07:18:01;0.43;;;0.43;;
77204;SDS011;67992;46.618;18.850;2023-04-07T07:20:32;0.50;;;0.50;;
77204;SDS011;67992;46.618;18.850;2023-04-07T07:23:02;0.77;;;0.77;;
77204;SDS011;67992;46.618;18.850;2023-04-07T07:25:33;0.52;;;0.52;;
77204;SDS011;67992;46.618;18.850;2023-04-07T07:28:04;0.80;;;0.80;;
77204;SDS011;67992;46.618;18.850;2023-04-07T07:30:33;0.80;;;0.80;;
77204;SDS011;67992;46.618;18.850;2023-04-07T07:32:59;0.60;;;0.60;;
77204;SDS011;67992;46.618;18.850;2023-04-07T07:35:30;0.70;;;0.70;;
77204;SDS011;67992;46.618;18.850;2023-04-07T07:37:59;0.45;;;0.45;;
77204;SDS011;67992;46.618;18.850;2023-04-07T07:40:28;0.60;;;0.60;;
77204;SDS011;67992;46.618;18.850;2023-04-07T07:42:56;0.60;;;0.60;;
77204;SDS011;67992;46.618;18.850;2023-04-07T07:45:25;0.80;;;0.80;;
77204;SDS011;67992;46.618;18.850;2023-04-07T07:47:51;0.60;;;0.60;;
77204;SDS011;67992;46.618;18.850;2023-04-07T07:50:20;0.73;;;0.73;;
77204;SDS011;67992;46.618;18.850;2023-04-07T07:52:50;0.60;;;0.60;;
77204;SDS011;67992;46.618;18.850;2023-04-07T07:55:15;0.60;;;0.60;;
77204;SDS011;67992;46.618;18.850;2023-04-07T07:57:46;0.80;;;0.80;;
77204;SDS011;67992;46.618;18.850;2023-04-07T08:00:12;0.70;;;0.70;;
77204;SDS011;67992;46.618;18.850;2023-04-07T08:02:42;0.55;;;0.55;;
77204;SDS011;67992;46.618;18.850;2023-04-07T08:05:08;0.80;;;0.80;;
77204;SDS011;67992;46.618;18.850;2023-04-07T08:07:34;0.52;;;0.52;;
77204;SDS011;67992;46.618;18.850;2023-04-07T08:10:03;0.70;;;0.70;;
77204;SDS011;67992;46.618;18.850;2023-04-07T08:12:33;1.02;;;1.02;;
77204;SDS011;67992;46.618;18.850;2023-04-07T08:15:02;0.50;;;0.50;;
77204;SDS011;67992;46.618;18.850;2023-04-07T08:17:28;0.65;;;0.65;;
77204;SDS011;67992;46.618;18.850;2023-04-07T08:19:57;0.90;;;0.90;;
77204;SDS011;67992;46.618;18.850;2023-04-07T08:22:22;0.73;;;0.73;;
77204;SDS011;67992;46.618;18.850;2023-04-07T08:24:48;0.70;;;0.70;;
77204;SDS011;67992;46.618;18.850;2023-04-07T08:27:14;0.90;;;0.90;;
77204;SDS011;67992;46.618;18.850;2023-04-07T08:29:50;0.80;;;0.80;;
77204;SDS011;67992;46.618;18.850;2023-04-07T08:32:24;0.63;;;0.63;;
77204;SDS011;67992;46.618;18.850;2023-04-07T08:34:54;0.65;;;0.65;;
77204;SDS011;67992;46.618;18.850;2023-04-07T08:37:24;0.45;;;0.45;;
77204;SDS011;67992;46.618;18.850;2023-04-07T08:39:53;0.68;;;0.68;;
77204;SDS011;67992;46.618;18.850;2023-04-07T08:42:22;0.60;;;0.60;;
77204;SDS011;67992;46.618;18.850;2023-04-07T08:44:57;0.82;;;0.82;;
77204;SDS011;67992;46.618;18.850;2023-04-07T08:47:33;0.70;;;0.68;;
77204;SDS011;67992;46.618;18.850;2023-04-07T08:50:06;0.73;;;0.73;;
77204;SDS011;67992;46.618;18.850;2023-04-07T08:55:05;0.75;;;0.75;;
77204;SDS011;67992;46.618;18.850;2023-04-07T08:57:32;0.70;;;0.70;;
77204;SDS011;67992;46.618;18.850;2023-04-07T08:59:59;0.80;;;0.80;;
77204;SDS011;67992;46.618;18.850;2023-04-07T09:02:37;0.50;;;0.50;;
77204;SDS011;67992;46.618;18.850;2023-04-07T09:05:04;0.70;;;0.70;;
77204;SDS011;67992;46.618;18.850;2023-04-07T09:07:34;0.70;;;0.70;;
77204;SDS011;67992;46.618;18.850;2023-04-07T09:10:02;0.70;;;0.70;;
77204;SDS011;67992;46.618;18.850;2023-04-07T09:12:28;0.68;;;0.68;;
77204;SDS011;67992;46.618;18.850;2023-04-07T09:14:58;0.90;;;0.90;;
77204;SDS011;67992;46.618;18.850;2023-04-07T09:17:29;1.00;;;1.00;;
77204;SDS011;67992;46.618;18.850;2023-04-07T09:19:58;0.80;;;0.80;;
77204;SDS011;67992;46.618;18.850;2023-04-07T09:22:34;0.93;;;0.93;;
77204;SDS011;67992;46.618;18.850;2023-04-07T09:30:26;1.05;;;0.95;;
77204;SDS011;67992;46.618;18.850;2023-04-07T09:35:21;1.30;;;1.20;;
77204;SDS011;67992;46.618;18.850;2023-04-07T09:38:00;0.90;;;0.90;;
77204;SDS011;67992;46.618;18.850;2023-04-07T09:40:30;0.93;;;0.93;;
77204;SDS011;67992;46.618;18.850;2023-04-07T09:42:56;1.30;;;1.20;;
77204;SDS011;67992;46.618;18.850;2023-04-07T09:45:29;1.20;;;1.10;;
77204;SDS011;67992;46.618;18.850;2023-04-07T09:48:08;1.20;;;1.10;;
77204;SDS011;67992;46.618;18.850;2023-04-07T09:50:44;0.82;;;0.82;;
77204;SDS011;67992;46.618;18.850;2023-04-07T09:53:13;1.00;;;1.00;;
77204;SDS011;67992;46.618;18.850;2023-04-07T09:55:42;1.13;;;1.02;;
77204;SDS011;67992;46.618;18.850;2023-04-07T09:58:08;1.10;;;1.00;;
77204;SDS011;67992;46.618;18.850;2023-04-07T10:00:38;1.10;;;1.10;;
77204;SDS011;67992;46.618;18.850;2023-04-07T10:03:05;1.00;;;1.00;;
77204;SDS011;67992;46.618;18.850;2023-04-07T10:05:32;0.95;;;0.95;;
77204;SDS011;67992;46.618;18.850;2023-04-07T10:07:59;1.20;;;1.10;;
77204;SDS011;67992;46.618;18.850;2023-04-07T10:10:26;1.02;;;1.02;;
77204;SDS011;67992;46.618;18.850;2023-04-07T10:12:53;0.80;;;0.80;;
77204;SDS011;67992;46.618;18.850;2023-04-07T10:15:21;0.85;;;0.85;;
77204;SDS011;67992;46.618;18.850;2023-04-07T10:17:47;0.80;;;0.80;;
77204;SDS011;67992;46.618;18.850;2023-04-07T10:20:18;0.88;;;0.88;;
77204;SDS011;67992;46.618;18.850;2023-04-07T10:22:45;0.95;;;0.93;;
77204;SDS011;67992;46.618;18.850;2023-04-07T10:25:13;0.90;;;0.90;;
77204;SDS011;67992;46.618;18.850;2023-04-07T10:27:48;0.82;;;0.82;;
77204;SDS011;67992;46.618;18.850;2023-04-07T10:30:25;0.90;;;0.90;;
77204;SDS011;67992;46.618;18.850;2023-04-07T10:32:52;0.98;;;0.98;;
77204;SDS011;67992;46.618;18.850;2023-04-07T10:35:20;0.80;;;0.80;;
77204;SDS011;67992;46.618;18.850;2023-04-07T10:40:31;0.80;;;0.80;;
77204;SDS011;67992;46.618;18.850;2023-04-07T10:42:57;0.80;;;0.80;;
77204;SDS011;67992;46.618;18.850;2023-04-07T10:48:14;1.00;;;1.00;;
77204;SDS011;67992;46.618;18.850;2023-04-07T10:50:41;0.85;;;0.85;;
77204;SDS011;67992;46.618;18.850;2023-04-07T10:53:13;0.90;;;0.90;;
77204;SDS011;67992;46.618;18.850;2023-04-07T10:55:40;0.93;;;0.93;;
77204;SDS011;67992;46.618;18.850;2023-04-07T10:58:17;0.80;;;0.80;;
77204;SDS011;67992;46.618;18.850;2023-04-07T11:03:21;0.90;;;0.90;;
77204;SDS011;67992;46.618;18.850;2023-04-07T11:05:47;0.60;;;0.60;;
77204;SDS011;67992;46.618;18.850;2023-04-07T11:08:13;0.98;;;0.98;;
77204;SDS011;67992;46.618;18.850;2023-04-07T11:10:39;0.85;;;0.80;;
77204;SDS011;67992;46.618;18.850;2023-04-07T11:13:11;0.73;;;0.73;;
77204;SDS011;67992;46.618;18.850;2023-04-07T11:15:37;0.88;;;0.88;;
77204;SDS011;67992;46.618;18.850;2023-04-07T11:18:09;0.98;;;0.98;;
77204;SDS011;67992;46.618;18.850;2023-04-07T11:23:15;0.40;;;0.40;;
77204;SDS011;67992;46.618;18.850;2023-04-07T11:25:46;0.55;;;0.55;;
77204;SDS011;67992;46.618;18.850;2023-04-07T11:28:16;0.82;;;0.82;;
77204;SDS011;67992;46.618;18.850;2023-04-07T11:30:49;0.80;;;0.80;;
77204;SDS011;67992;46.618;18.850;2023-04-07T11:33:20;0.80;;;0.80;;
77204;SDS011;67992;46.618;18.850;2023-04-07T11:35:50;0.60;;;0.60;;
77204;SDS011;67992;46.618;18.850;2023-04-07T11:38:18;0.80;;;0.80;;
77204;SDS011;67992;46.618;18.850;2023-04-07T11:40:45;0.80;;;0.80;;
77204;SDS011;67992;46.618;18.850;2023-04-07T11:43:18;0.63;;;0.63;;
77204;SDS011;67992;46.618;18.850;2023-04-07T11:45:46;0.73;;;0.73;;
77204;SDS011;67992;46.618;18.850;2023-04-07T11:48:37;0.95;;;0.95;;
77204;SDS011;67992;46.618;18.850;2023-04-07T11:51:06;0.60;;;0.60;;
77204;SDS011;67992;46.618;18.850;2023-04-07T11:53:40;0.65;;;0.65;;
77204;SDS011;67992;46.618;18.850;2023-04-07T11:56:06;0.65;;;0.65;;
77204;SDS011;67992;46.618;18.850;2023-04-07T11:58:34;0.68;;;0.68;;
77204;SDS011;67992;46.618;18.850;2023-04-07T12:01:04;0.57;;;0.57;;
77204;SDS011;67992;46.618;18.850;2023-04-07T12:03:35;0.88;;;0.88;;
77204;SDS011;67992;46.618;18.850;2023-04-07T12:06:05;0.68;;;0.68;;
77204;SDS011;67992;46.618;18.850;2023-04-07T12:11:03;0.50;;;0.50;;
77204;SDS011;67992;46.618;18.850;2023-04-07T12:13:33;0.50;;;0.50;;
77204;SDS011;67992;46.618;18.850;2023-04-07T12:16:03;0.63;;;0.63;;
77204;SDS011;67992;46.618;18.850;2023-04-07T12:18:32;0.50;;;0.50;;
77204;SDS011;67992;46.618;18.850;2023-04-07T12:20:57;0.60;;;0.60;;
77204;SDS011;67992;46.618;18.850;2023-04-07T12:23:26;0.77;;;0.77;;
77204;SDS011;67992;46.618;18.850;2023-04-07T12:25:54;0.70;;;0.70;;
77204;SDS011;67992;46.618;18.850;2023-04-07T12:28:20;0.43;;;0.43;;
77204;SDS011;67992;46.618;18.850;2023-04-07T12:30:48;0.70;;;0.70;;
77204;SDS011;67992;46.618;18.850;2023-04-07T12:33:16;0.68;;;0.68;;
77204;SDS011;67992;46.618;18.850;2023-04-07T12:35:45;0.60;;;0.60;;
77204;SDS011;67992;46.618;18.850;2023-04-07T12:38:12;0.82;;;0.82;;
77204;SDS011;67992;46.618;18.850;2023-04-07T12:40:42;0.75;;;0.75;;
77204;SDS011;67992;46.618;18.850;2023-04-07T12:43:10;0.63;;;0.63;;
77204;SDS011;67992;46.618;18.850;2023-04-07T12:45:36;1.25;;;1.15;;
77204;SDS011;67992;46.618;18.850;2023-04-07T12:48:01;1.30;;;1.20;;
77204;SDS011;67992;46.618;18.850;2023-04-07T12:50:30;1.40;;;1.30;;
77204;SDS011;67992;46.618;18.850;2023-04-07T12:52:59;1.10;;;1.10;;
77204;SDS011;67992;46.618;18.850;2023-04-07T12:55:29;1.23;;;1.20;;
77204;SDS011;67992;46.618;18.850;2023-04-07T12:57:59;1.58;;;1.48;;
77204;SDS011;67992;46.618;18.850;2023-04-07T13:00:27;1.50;;;1.40;;
77204;SDS011;67992;46.618;18.850;2023-04-07T13:02:53;1.38;;;1.27;;
77204;SDS011;67992;46.618;18.850;2023-04-07T13:05:24;1.50;;;1.40;;
77204;SDS011;67992;46.618;18.850;2023-04-07T13:07:56;1.63;;;1.50;;
77204;SDS011;67992;46.618;18.850;2023-04-07T13:10:24;1.63;;;1.50;;
77204;SDS011;67992;46.618;18.850;2023-04-07T13:12:52;1.40;;;1.30;;
77204;SDS011;67992;46.618;18.850;2023-04-07T13:15:18;1.60;;;1.50;;
77204;SDS011;67992;46.618;18.850;2023-04-07T13:17:43;1.52;;;1.42;;
77204;SDS011;67992;46.618;18.850;2023-04-07T13:20:12;1.40;;;1.30;;
77204;SDS011;67992;46.618;18.850;2023-04-07T13:22:38;1.33;;;1.23;;
77204;SDS011;67992;46.618;18.850;2023-04-07T13:25:03;1.33;;;1.23;;
77204;SDS011;67992;46.618;18.850;2023-04-07T13:27:29;1.30;;;1.20;;
77204;SDS011;67992;46.618;18.850;2023-04-07T13:29:55;1.40;;;1.30;;
77204;SDS011;67992;46.618;18.850;2023-04-07T13:32:24;1.45;;;1.35;;
77204;SDS011;67992;46.618;18.850;2023-04-07T13:34:49;1.30;;;1.20;;
77204;SDS011;67992;46.618;18.850;2023-04-07T13:37:18;1.30;;;1.20;;
77204;SDS011;67992;46.618;18.850;2023-04-07T13:39:44;1.17;;;1.15;;
77204;SDS011;67992;46.618;18.850;2023-04-07T13:42:12;1.38;;;1.27;;
77204;SDS011;67992;46.618;18.850;2023-04-07T13:44:44;1.20;;;1.10;;
77204;SDS011;67992;46.618;18.850;2023-04-07T13:47:14;1.25;;;1.20;;
77204;SDS011;67992;46.618;18.850;2023-04-07T13:49:44;1.13;;;1.08;;
77204;SDS011;67992;46.618;18.850;2023-04-07T13:52:14;1.23;;;1.13;;
77204;SDS011;67992;46.618;18.850;2023-04-07T13:54:43;1.00;;;1.00;;
77204;SDS011;67992;46.618;18.850;2023-04-07T13:57:15;1.00;;;1.00;;
77204;SDS011;67992;46.618;18.850;2023-04-07T13:59:47;1.20;;;1.10;;
77204;SDS011;67992;46.618;18.850;2023-04-07T14:02:13;1.30;;;1.20;;
77204;SDS011;67992;46.618;18.850;2023-04-07T14:04:42;1.30;;;1.20;;
77204;SDS011;67992;46.618;18.850;2023-04-07T14:07:13;1.10;;;1.10;;
77204;SDS011;67992;46.618;18.850;2023-04-07T14:09:42;1.00;;;1.00;;
77204;SDS011;67992;46.618;18.850;2023-04-07T14:12:13;0.90;;;0.90;;
77204;SDS011;67992;46.618;18.850;2023-04-07T14:14:39;1.08;;;1.00;;
77204;SDS011;67992;46.618;18.850;2023-04-07T14:17:12;1.00;;;1.00;;
77204;SDS011;67992;46.618;18.850;2023-04-07T14:19:42;0.82;;;0.82;;
77204;SDS011;67992;46.618;18.850;2023-04-07T14:22:11;0.90;;;0.90;;
77204;SDS011;67992;46.618;18.850;2023-04-07T14:24:43;1.00;;;1.00;;
77204;SDS011;67992;46.618;18.850;2023-04-07T14:27:09;0.90;;;0.90;;
77204;SDS011;67992;46.618;18.850;2023-04-07T14:29:38;1.00;;;1.00;;
77204;SDS011;67992;46.618;18.850;2023-04-07T14:32:06;0.80;;;0.80;;
77204;SDS011;67992;46.618;18.850;2023-04-07T14:34:35;1.00;;;1.00;;
77204;SDS011;67992;46.618;18.850;2023-04-07T14:37:08;0.63;;;0.63;;
77204;SDS011;67992;46.618;18.850;2023-04-07T14:39:35;0.90;;;0.90;;
77204;SDS011;67992;46.618;18.850;2023-04-07T14:42:01;0.70;;;0.70;;
77204;SDS011;67992;46.618;18.850;2023-04-07T14:44:34;0.77;;;0.77;;
77204;SDS011;67992;46.618;18.850;2023-04-07T14:47:02;1.02;;;1.02;;
77204;SDS011;67992;46.618;18.850;2023-04-07T14:49:31;0.90;;;0.90;;
77204;SDS011;67992;46.618;18.850;2023-04-07T14:52:03;0.80;;;0.80;;
77204;SDS011;67992;46.618;18.850;2023-04-07T14:54:36;0.90;;;0.90;;
77204;SDS011;67992;46.618;18.850;2023-04-07T14:57:05;0.70;;;0.70;;
77204;SDS011;67992;46.618;18.850;2023-04-07T14:59:36;0.80;;;0.80;;
77204;SDS011;67992;46.618;18.850;2023-04-07T15:02:07;0.93;;;0.93;;
77204;SDS011;67992;46.618;18.850;2023-04-07T15:04:35;0.90;;;0.90;;
77204;SDS011;67992;46.618;18.850;2023-04-07T15:07:01;0.68;;;0.68;;
77204;SDS011;67992;46.618;18.850;2023-04-07T15:09:33;0.90;;;0.90;;